Record high temperature 42.2°C Record low temperature -14.6°C Record high gust 76.2 km/h Record high average 96.8 km/h Record daily rain 63.7 mm Record low windchill -17.5°C Record high barometer 1092.0 hPa Record low barometer 893.0 hPa
Daily high pressure 981.0 hPa Daily low pressure 975.0 hPa Daily low windchill -0.7°C Daily high heat index 4.6°C Daily high gust speed 25.9 kmh NNE Daily high average speed 17.6 kmh NE

This page is updated from recent data collected by a WMR200 weather station Use the Reload or Refresh facility on your browser to retrieve the latest data.

Status report of weather station: Bienvenue sur la Station Météo de Godarville



Weather report/warning/Metars

Alexandroupoli Airport , Greece (LGAL) 40-51N 025-55E 3M
Jan 27, 2023 - 02:50 PM EST / 2023.01.27 1950 UTC
Wind: Calm:0
Visibility: 4 mile(s):0
Sky conditions: mostly cloudy
Weather: light rain
Temperature: 46 F (8 C)
Dew Point: 44 F (7 C)
Relative Humidity: 93%
Pressure (altimeter): 29.68 in. Hg (1005 hPa)
ob: LGAL 271950Z 00000KT 7000 -RA FEW012 BKN020 08/07 Q1005
cycle: 20

Charleroi / Gosselies, Belgium (EBCI) 50-28N 004-27E 192M
Jan 27, 2023 - 02:50 PM EST / 2023.01.27 1950 UTC
Wind: from the NE (040 degrees) at 8 MPH (7 KT):0
Visibility: greater than 7 mile(s):0
Sky conditions: mostly cloudy
Temperature: 35 F (2 C)
Windchill: 28 F (-2 C):1
Dew Point: 32 F (0 C)
Relative Humidity: 86%
Pressure (altimeter): 30.33 in. Hg (1027 hPa)
ob: EBCI 271950Z 04007KT 9999 SCT014 BKN018 02/M00 Q1027 NOSIG
cycle: 20

Bruxelles National, Belgium (EBBR) 50-54N 004-32E 58M
Jan 27, 2023 - 02:50 PM EST / 2023.01.27 1950 UTC
Wind: from the NNE (030 degrees) at 10 MPH (9 KT):0
Visibility: greater than 7 mile(s):0
Sky conditions: mostly cloudy
Temperature: 39 F (4 C)
Dew Point: 32 F (0 C)
Relative Humidity: 75%
Pressure (altimeter): 30.36 in. Hg (1028 hPa)
ob: EBBR 271950Z 03009KT 9999 BKN020 04/00 Q1028 NOSIG
cycle: 20

Koksijde, Belgium (EBFN) 51-05N 002-39E 9M
Jan 27, 2023 - 02:55 PM EST / 2023.01.27 1955 UTC
Wind: from the NE (050 degrees) at 6 MPH (5 KT):0
Visibility: greater than 7 mile(s):0
Sky conditions: overcast
Temperature: 41 F (5 C)
Dew Point: 33 F (1 C)
Relative Humidity: 75%
Pressure (altimeter): 30.42 in. Hg (1030 hPa)
ob: EBFN 271955Z AUTO 05005KT 9999 OVC022/// 05/01 Q1030 WHT
cycle: 20

Poznan, Poland (EPPO) 52-25N 016-50E 92M
Jan 27, 2023 - 03:00 PM EST / 2023.01.27 2000 UTC
Wind: from the ENE (060 degrees) at 12 MPH (10 KT):0
Visibility: greater than 7 mile(s):0
Sky conditions: overcast
Temperature: 30 F (-1 C)
Windchill: 19 F (-7 C):1
Dew Point: 24 F (-4 C)
Relative Humidity: 80%
Pressure (altimeter): 30.27 in. Hg (1025 hPa)
ob: EPPO 272000Z 06010KT 9999 FEW020 OVC033 M01/M04 Q1025 
cycle: 20



Coucher du Soleil:
17:24:39

Lever de Lune:
10:54:18 26/01/23

Coucher de Lune:
23:34:15 26/01/23

Premier Quartier 28 janvier 2023
Pleine Lune 5 février 2023
Dernier Quartier 13 février 2023
Nouvelle Lune 20 février 2023
Âge de lune : 5 jours,17 heures,4 minutes,33%
Les heures du jour possible étaient aujourd’hui 08:58



Use the RELOAD facility on your browser to retrieve the latest data.

Click here for a daily update of the averages/extremes to date for the month
Created by "Weather Display" software version 10.37P at this start time/date 18:49:46 25/01/2023